sensor_id;sensor_type;location;lat;lon;timestamp;P1;durP1;ratioP1;P2;durP2;ratioP2
21000;SDS011;10658;50.920;12.238;2022-12-07T00:03:08;11.60;;;5.60;;
21000;SDS011;10658;50.920;12.238;2022-12-07T00:07:09;10.55;;;6.07;;
21000;SDS011;10658;50.920;12.238;2022-12-07T00:11:15;12.27;;;6.47;;
21000;SDS011;10658;50.920;12.238;2022-12-07T00:15:18;12.70;;;6.70;;
21000;SDS011;10658;50.920;12.238;2022-12-07T00:19:19;11.27;;;6.13;;
21000;SDS011;10658;50.920;12.238;2022-12-07T00:23:21;11.85;;;7.00;;
21000;SDS011;10658;50.920;12.238;2022-12-07T00:27:22;12.18;;;6.47;;
21000;SDS011;10658;50.920;12.238;2022-12-07T00:31:24;13.10;;;6.57;;
21000;SDS011;10658;50.920;12.238;2022-12-07T00:35:30;10.85;;;5.68;;
21000;SDS011;10658;50.920;12.238;2022-12-07T00:39:32;11.27;;;6.03;;
21000;SDS011;10658;50.920;12.238;2022-12-07T00:43:33;9.48;;;5.45;;
21000;SDS011;10658;50.920;12.238;2022-12-07T00:47:35;11.85;;;6.03;;
21000;SDS011;10658;50.920;12.238;2022-12-07T00:51:37;11.45;;;6.13;;
21000;SDS011;10658;50.920;12.238;2022-12-07T00:55:39;8.93;;;6.20;;
21000;SDS011;10658;50.920;12.238;2022-12-07T00:59:40;11.07;;;6.40;;
21000;SDS011;10658;50.920;12.238;2022-12-07T01:03:42;11.95;;;7.00;;
21000;SDS011;10658;50.920;12.238;2022-12-07T01:07:42;12.98;;;6.53;;
21000;SDS011;10658;50.920;12.238;2022-12-07T01:11:44;12.15;;;6.55;;
21000;SDS011;10658;50.920;12.238;2022-12-07T01:15:45;11.20;;;6.43;;
21000;SDS011;10658;50.920;12.238;2022-12-07T01:19:46;14.02;;;7.20;;
21000;SDS011;10658;50.920;12.238;2022-12-07T01:23:47;11.93;;;6.47;;
21000;SDS011;10658;50.920;12.238;2022-12-07T01:27:49;11.10;;;5.78;;
21000;SDS011;10658;50.920;12.238;2022-12-07T01:31:50;10.25;;;5.82;;
21000;SDS011;10658;50.920;12.238;2022-12-07T01:35:51;8.55;;;5.05;;
21000;SDS011;10658;50.920;12.238;2022-12-07T01:39:53;12.88;;;5.35;;
21000;SDS011;10658;50.920;12.238;2022-12-07T01:48:17;10.55;;;5.85;;
21000;SDS011;10658;50.920;12.238;2022-12-07T01:52:28;10.10;;;5.25;;
21000;SDS011;10658;50.920;12.238;2022-12-07T02:01:55;10.05;;;5.85;;
21000;SDS011;10658;50.920;12.238;2022-12-07T02:05:57;8.05;;;4.50;;
21000;SDS011;10658;50.920;12.238;2022-12-07T02:10:16;9.80;;;4.68;;
21000;SDS011;10658;50.920;12.238;2022-12-07T02:14:17;9.30;;;4.65;;
21000;SDS011;10658;50.920;12.238;2022-12-07T02:31:55;9.63;;;4.57;;
21000;SDS011;10658;50.920;12.238;2022-12-07T02:36:17;5.88;;;3.97;;
21000;SDS011;10658;50.920;12.238;2022-12-07T02:44:29;7.63;;;3.90;;
21000;SDS011;10658;50.920;12.238;2022-12-07T02:48:33;7.35;;;4.15;;
21000;SDS011;10658;50.920;12.238;2022-12-07T02:52:35;8.57;;;4.43;;
21000;SDS011;10658;50.920;12.238;2022-12-07T02:56:44;5.97;;;3.42;;
21000;SDS011;10658;50.920;12.238;2022-12-07T03:01:04;6.00;;;3.63;;
21000;SDS011;10658;50.920;12.238;2022-12-07T03:13:56;6.10;;;3.53;;
21000;SDS011;10658;50.920;12.238;2022-12-07T03:18:06;7.63;;;3.30;;
21000;SDS011;10658;50.920;12.238;2022-12-07T03:22:12;4.43;;;2.88;;
21000;SDS011;10658;50.920;12.238;2022-12-07T03:26:14;5.55;;;3.38;;
21000;SDS011;10658;50.920;12.238;2022-12-07T03:30:26;5.18;;;2.97;;
21000;SDS011;10658;50.920;12.238;2022-12-07T03:34:32;4.35;;;2.90;;
21000;SDS011;10658;50.920;12.238;2022-12-07T03:38:57;3.55;;;2.33;;
21000;SDS011;10658;50.920;12.238;2022-12-07T03:43:03;5.35;;;3.25;;
21000;SDS011;10658;50.920;12.238;2022-12-07T03:47:08;4.18;;;2.45;;
21000;SDS011;10658;50.920;12.238;2022-12-07T03:51:28;4.10;;;2.80;;
21000;SDS011;10658;50.920;12.238;2022-12-07T03:55:39;3.13;;;2.55;;
21000;SDS011;10658;50.920;12.238;2022-12-07T03:59:43;5.57;;;2.90;;
21000;SDS011;10658;50.920;12.238;2022-12-07T04:03:44;6.22;;;2.40;;
21000;SDS011;10658;50.920;12.238;2022-12-07T04:07:45;4.13;;;2.20;;
21000;SDS011;10658;50.920;12.238;2022-12-07T04:11:47;4.45;;;2.63;;
21000;SDS011;10658;50.920;12.238;2022-12-07T04:15:48;3.95;;;2.55;;
21000;SDS011;10658;50.920;12.238;2022-12-07T04:19:49;3.53;;;2.40;;
21000;SDS011;10658;50.920;12.238;2022-12-07T04:23:50;3.83;;;2.63;;
21000;SDS011;10658;50.920;12.238;2022-12-07T04:27:51;4.45;;;2.88;;
21000;SDS011;10658;50.920;12.238;2022-12-07T04:31:53;4.45;;;2.85;;
21000;SDS011;10658;50.920;12.238;2022-12-07T04:35:55;3.22;;;2.47;;
21000;SDS011;10658;50.920;12.238;2022-12-07T04:39:57;5.03;;;2.92;;
21000;SDS011;10658;50.920;12.238;2022-12-07T04:43:59;4.05;;;2.60;;
21000;SDS011;10658;50.920;12.238;2022-12-07T04:48:03;3.38;;;2.67;;
21000;SDS011;10658;50.920;12.238;2022-12-07T04:52:04;5.43;;;2.85;;
21000;SDS011;10658;50.920;12.238;2022-12-07T04:56:07;5.10;;;2.35;;
21000;SDS011;10658;50.920;12.238;2022-12-07T05:00:08;5.68;;;2.95;;
21000;SDS011;10658;50.920;12.238;2022-12-07T05:04:09;4.82;;;2.90;;
21000;SDS011;10658;50.920;12.238;2022-12-07T05:08:10;4.72;;;3.33;;
21000;SDS011;10658;50.920;12.238;2022-12-07T05:12:12;6.70;;;3.42;;
21000;SDS011;10658;50.920;12.238;2022-12-07T05:16:13;7.32;;;3.15;;
21000;SDS011;10658;50.920;12.238;2022-12-07T05:20:14;5.53;;;3.22;;
21000;SDS011;10658;50.920;12.238;2022-12-07T05:24:15;7.70;;;3.70;;
21000;SDS011;10658;50.920;12.238;2022-12-07T05:28:17;5.35;;;3.17;;
21000;SDS011;10658;50.920;12.238;2022-12-07T05:32:18;5.25;;;3.70;;
21000;SDS011;10658;50.920;12.238;2022-12-07T05:36:19;5.60;;;3.22;;
21000;SDS011;10658;50.920;12.238;2022-12-07T05:40:21;5.88;;;3.03;;
21000;SDS011;10658;50.920;12.238;2022-12-07T05:44:22;5.47;;;3.25;;
21000;SDS011;10658;50.920;12.238;2022-12-07T05:48:24;6.00;;;3.63;;
21000;SDS011;10658;50.920;12.238;2022-12-07T05:52:25;6.30;;;3.92;;
21000;SDS011;10658;50.920;12.238;2022-12-07T05:56:26;6.57;;;3.67;;
21000;SDS011;10658;50.920;12.238;2022-12-07T06:00:28;5.32;;;3.13;;
21000;SDS011;10658;50.920;12.238;2022-12-07T06:04:30;5.60;;;3.58;;
21000;SDS011;10658;50.920;12.238;2022-12-07T06:08:34;6.05;;;3.60;;
21000;SDS011;10658;50.920;12.238;2022-12-07T06:12:35;7.15;;;3.72;;
21000;SDS011;10658;50.920;12.238;2022-12-07T06:16:38;8.10;;;4.32;;
21000;SDS011;10658;50.920;12.238;2022-12-07T06:20:40;5.28;;;3.80;;
21000;SDS011;10658;50.920;12.238;2022-12-07T06:24:41;5.97;;;3.40;;
21000;SDS011;10658;50.920;12.238;2022-12-07T06:28:43;5.93;;;3.83;;
21000;SDS011;10658;50.920;12.238;2022-12-07T06:32:45;7.30;;;3.80;;
21000;SDS011;10658;50.920;12.238;2022-12-07T06:36:47;7.97;;;4.43;;
21000;SDS011;10658;50.920;12.238;2022-12-07T06:40:51;9.57;;;3.70;;
21000;SDS011;10658;50.920;12.238;2022-12-07T06:44:56;8.02;;;4.68;;
21000;SDS011;10658;50.920;12.238;2022-12-07T06:48:57;5.60;;;4.13;;
21000;SDS011;10658;50.920;12.238;2022-12-07T06:52:58;7.03;;;4.53;;
21000;SDS011;10658;50.920;12.238;2022-12-07T06:57:00;6.20;;;3.88;;
21000;SDS011;10658;50.920;12.238;2022-12-07T07:01:01;6.68;;;3.95;;
21000;SDS011;10658;50.920;12.238;2022-12-07T07:05:03;8.13;;;4.35;;
21000;SDS011;10658;50.920;12.238;2022-12-07T07:09:05;9.15;;;4.45;;
21000;SDS011;10658;50.920;12.238;2022-12-07T07:13:06;7.53;;;4.47;;
21000;SDS011;10658;50.920;12.238;2022-12-07T07:17:08;8.57;;;5.03;;
21000;SDS011;10658;50.920;12.238;2022-12-07T07:21:09;7.85;;;5.13;;
21000;SDS011;10658;50.920;12.238;2022-12-07T07:25:10;5.75;;;4.15;;
21000;SDS011;10658;50.920;12.238;2022-12-07T07:29:11;8.35;;;4.85;;
21000;SDS011;10658;50.920;12.238;2022-12-07T07:33:12;10.02;;;5.13;;
21000;SDS011;10658;50.920;12.238;2022-12-07T07:37:13;9.57;;;5.18;;
21000;SDS011;10658;50.920;12.238;2022-12-07T07:41:15;8.35;;;4.78;;
21000;SDS011;10658;50.920;12.238;2022-12-07T07:45:17;9.85;;;5.63;;
21000;SDS011;10658;50.920;12.238;2022-12-07T07:49:20;10.55;;;5.85;;
21000;SDS011;10658;50.920;12.238;2022-12-07T07:53:22;9.23;;;5.25;;
21000;SDS011;10658;50.920;12.238;2022-12-07T07:57:24;10.90;;;5.95;;
21000;SDS011;10658;50.920;12.238;2022-12-07T08:01:26;11.50;;;5.88;;
21000;SDS011;10658;50.920;12.238;2022-12-07T08:05:27;8.43;;;5.75;;
21000;SDS011;10658;50.920;12.238;2022-12-07T08:09:28;13.55;;;5.78;;
21000;SDS011;10658;50.920;12.238;2022-12-07T08:13:29;12.40;;;6.20;;
21000;SDS011;10658;50.920;12.238;2022-12-07T08:17:30;11.90;;;5.53;;
21000;SDS011;10658;50.920;12.238;2022-12-07T08:21:32;11.73;;;6.03;;
21000;SDS011;10658;50.920;12.238;2022-12-07T08:25:33;12.30;;;6.97;;
21000;SDS011;10658;50.920;12.238;2022-12-07T08:29:34;11.43;;;6.28;;
21000;SDS011;10658;50.920;12.238;2022-12-07T08:33:37;11.32;;;5.70;;
21000;SDS011;10658;50.920;12.238;2022-12-07T08:37:39;7.30;;;3.85;;
21000;SDS011;10658;50.920;12.238;2022-12-07T08:41:41;10.70;;;5.75;;
21000;SDS011;10658;50.920;12.238;2022-12-07T08:45:42;12.63;;;6.13;;
21000;SDS011;10658;50.920;12.238;2022-12-07T08:49:43;11.52;;;6.10;;
21000;SDS011;10658;50.920;12.238;2022-12-07T08:53:48;11.15;;;5.75;;
21000;SDS011;10658;50.920;12.238;2022-12-07T08:57:51;10.85;;;5.82;;
21000;SDS011;10658;50.920;12.238;2022-12-07T09:01:53;8.32;;;5.50;;
21000;SDS011;10658;50.920;12.238;2022-12-07T09:05:54;12.75;;;6.13;;
21000;SDS011;10658;50.920;12.238;2022-12-07T09:09:55;8.85;;;4.70;;
21000;SDS011;10658;50.920;12.238;2022-12-07T09:13:57;9.18;;;5.07;;
21000;SDS011;10658;50.920;12.238;2022-12-07T09:17:58;9.00;;;4.95;;
21000;SDS011;10658;50.920;12.238;2022-12-07T09:22:00;8.57;;;5.10;;
21000;SDS011;10658;50.920;12.238;2022-12-07T09:26:02;8.35;;;5.40;;
21000;SDS011;10658;50.920;12.238;2022-12-07T09:30:05;7.80;;;4.85;;
21000;SDS011;10658;50.920;12.238;2022-12-07T09:34:08;8.50;;;5.50;;
21000;SDS011;10658;50.920;12.238;2022-12-07T09:38:09;9.80;;;5.20;;
21000;SDS011;10658;50.920;12.238;2022-12-07T09:42:13;13.52;;;5.55;;
21000;SDS011;10658;50.920;12.238;2022-12-07T09:46:24;9.77;;;4.60;;
21000;SDS011;10658;50.920;12.238;2022-12-07T09:50:37;6.50;;;4.13;;
21000;SDS011;10658;50.920;12.238;2022-12-07T09:54:41;8.02;;;4.95;;
21000;SDS011;10658;50.920;12.238;2022-12-07T09:58:46;8.10;;;4.38;;
21000;SDS011;10658;50.920;12.238;2022-12-07T10:02:55;8.90;;;5.05;;
21000;SDS011;10658;50.920;12.238;2022-12-07T10:06:58;11.48;;;5.15;;
21000;SDS011;10658;50.920;12.238;2022-12-07T10:10:59;9.02;;;5.07;;
21000;SDS011;10658;50.920;12.238;2022-12-07T10:15:04;6.40;;;4.07;;
21000;SDS011;10658;50.920;12.238;2022-12-07T10:19:18;8.02;;;4.28;;
21000;SDS011;10658;50.920;12.238;2022-12-07T10:23:24;8.00;;;4.07;;
21000;SDS011;10658;50.920;12.238;2022-12-07T10:27:32;5.40;;;3.85;;
21000;SDS011;10658;50.920;12.238;2022-12-07T10:31:33;7.28;;;4.30;;
21000;SDS011;10658;50.920;12.238;2022-12-07T10:35:42;6.38;;;3.88;;
21000;SDS011;10658;50.920;12.238;2022-12-07T10:43:53;7.90;;;3.45;;
21000;SDS011;10658;50.920;12.238;2022-12-07T10:52:26;6.40;;;3.97;;
21000;SDS011;10658;50.920;12.238;2022-12-07T10:56:51;7.15;;;4.55;;
21000;SDS011;10658;50.920;12.238;2022-12-07T11:10:11;5.85;;;3.42;;
21000;SDS011;10658;50.920;12.238;2022-12-07T11:14:31;3.88;;;2.72;;
21000;SDS011;10658;50.920;12.238;2022-12-07T11:22:51;5.75;;;3.13;;
21000;SDS011;10658;50.920;12.238;2022-12-07T11:27:14;5.88;;;2.17;;
21000;SDS011;10658;50.920;12.238;2022-12-07T11:36:09;3.70;;;2.30;;
21000;SDS011;10658;50.920;12.238;2022-12-07T11:40:29;3.60;;;2.08;;
21000;SDS011;10658;50.920;12.238;2022-12-07T11:49:08;3.53;;;2.13;;
21000;SDS011;10658;50.920;12.238;2022-12-07T11:57:39;7.00;;;2.08;;
21000;SDS011;10658;50.920;12.238;2022-12-07T12:01:53;4.85;;;2.17;;
21000;SDS011;10658;50.920;12.238;2022-12-07T12:06:03;7.60;;;2.35;;
21000;SDS011;10658;50.920;12.238;2022-12-07T12:10:06;4.85;;;2.17;;
21000;SDS011;10658;50.920;12.238;2022-12-07T12:18:53;3.65;;;1.77;;
21000;SDS011;10658;50.920;12.238;2022-12-07T12:27:15;2.80;;;1.45;;
21000;SDS011;10658;50.920;12.238;2022-12-07T12:35:37;3.95;;;1.67;;
21000;SDS011;10658;50.920;12.238;2022-12-07T12:39:39;4.13;;;1.60;;
21000;SDS011;10658;50.920;12.238;2022-12-07T12:43:44;3.03;;;1.42;;
21000;SDS011;10658;50.920;12.238;2022-12-07T12:48:03;2.90;;;1.65;;
21000;SDS011;10658;50.920;12.238;2022-12-07T12:56:43;7.53;;;1.60;;
21000;SDS011;10658;50.920;12.238;2022-12-07T13:01:32;1.90;;;1.67;;
21000;SDS011;10658;50.920;12.238;2022-12-07T13:05:40;3.10;;;1.67;;
21000;SDS011;10658;50.920;12.238;2022-12-07T13:09:42;3.80;;;1.85;;
21000;SDS011;10658;50.920;12.238;2022-12-07T13:13:45;4.40;;;1.67;;
21000;SDS011;10658;50.920;12.238;2022-12-07T13:17:56;3.20;;;1.60;;
21000;SDS011;10658;50.920;12.238;2022-12-07T13:22:01;3.20;;;1.05;;
21000;SDS011;10658;50.920;12.238;2022-12-07T13:30:21;2.35;;;1.35;;
21000;SDS011;10658;50.920;12.238;2022-12-07T13:38:47;3.03;;;1.33;;
21000;SDS011;10658;50.920;12.238;2022-12-07T13:43:01;2.67;;;1.02;;
21000;SDS011;10658;50.920;12.238;2022-12-07T13:47:18;1.85;;;1.05;;
21000;SDS011;10658;50.920;12.238;2022-12-07T13:51:23;5.43;;;1.40;;
21000;SDS011;10658;50.920;12.238;2022-12-07T13:55:29;1.83;;;1.05;;
21000;SDS011;10658;50.920;12.238;2022-12-07T13:59:30;2.17;;;1.05;;
21000;SDS011;10658;50.920;12.238;2022-12-07T14:03:35;1.25;;;0.82;;
21000;SDS011;10658;50.920;12.238;2022-12-07T14:07:48;2.53;;;0.98;;
21000;SDS011;10658;50.920;12.238;2022-12-07T14:11:56;3.70;;;1.65;;
21000;SDS011;10658;50.920;12.238;2022-12-07T14:15:58;1.45;;;1.27;;
21000;SDS011;10658;50.920;12.238;2022-12-07T14:20:02;1.83;;;1.05;;
21000;SDS011;10658;50.920;12.238;2022-12-07T14:24:16;1.30;;;0.90;;
21000;SDS011;10658;50.920;12.238;2022-12-07T14:28:29;1.98;;;1.10;;
21000;SDS011;10658;50.920;12.238;2022-12-07T14:32:32;1.35;;;0.93;;
21000;SDS011;10658;50.920;12.238;2022-12-07T14:36:35;2.53;;;1.17;;
21000;SDS011;10658;50.920;12.238;2022-12-07T14:40:37;2.25;;;0.73;;
21000;SDS011;10658;50.920;12.238;2022-12-07T14:44:39;1.48;;;1.38;;
21000;SDS011;10658;50.920;12.238;2022-12-07T14:48:40;2.38;;;1.17;;
21000;SDS011;10658;50.920;12.238;2022-12-07T14:52:42;2.70;;;1.35;;
21000;SDS011;10658;50.920;12.238;2022-12-07T14:56:46;1.17;;;1.00;;
21000;SDS011;10658;50.920;12.238;2022-12-07T15:00:51;2.88;;;1.48;;
21000;SDS011;10658;50.920;12.238;2022-12-07T15:04:52;3.72;;;1.80;;
21000;SDS011;10658;50.920;12.238;2022-12-07T15:08:53;2.78;;;2.03;;
21000;SDS011;10658;50.920;12.238;2022-12-07T15:12:55;2.90;;;2.28;;
21000;SDS011;10658;50.920;12.238;2022-12-07T15:17:19;4.65;;;2.22;;
21000;SDS011;10658;50.920;12.238;2022-12-07T15:21:21;4.63;;;2.33;;
21000;SDS011;10658;50.920;12.238;2022-12-07T15:25:22;2.95;;;2.15;;
21000;SDS011;10658;50.920;12.238;2022-12-07T15:29:24;7.20;;;3.00;;
21000;SDS011;10658;50.920;12.238;2022-12-07T15:33:25;7.65;;;4.40;;
21000;SDS011;10658;50.920;12.238;2022-12-07T15:37:27;7.32;;;3.38;;
21000;SDS011;10658;50.920;12.238;2022-12-07T15:41:29;6.20;;;2.90;;
21000;SDS011;10658;50.920;12.238;2022-12-07T15:45:30;6.82;;;4.65;;
21000;SDS011;10658;50.920;12.238;2022-12-07T15:49:31;15.23;;;6.00;;
21000;SDS011;10658;50.920;12.238;2022-12-07T15:53:32;6.38;;;3.55;;
21000;SDS011;10658;50.920;12.238;2022-12-07T15:57:35;4.97;;;2.75;;
21000;SDS011;10658;50.920;12.238;2022-12-07T16:01:38;11.52;;;6.38;;
21000;SDS011;10658;50.920;12.238;2022-12-07T16:05:38;9.60;;;4.95;;
21000;SDS011;10658;50.920;12.238;2022-12-07T16:09:39;6.22;;;3.92;;
21000;SDS011;10658;50.920;12.238;2022-12-07T16:13:40;14.30;;;6.82;;
21000;SDS011;10658;50.920;12.238;2022-12-07T16:17:41;11.88;;;5.25;;
21000;SDS011;10658;50.920;12.238;2022-12-07T16:21:42;6.68;;;3.47;;
21000;SDS011;10658;50.920;12.238;2022-12-07T16:25:43;7.15;;;3.78;;
21000;SDS011;10658;50.920;12.238;2022-12-07T16:29:45;9.68;;;4.45;;
21000;SDS011;10658;50.920;12.238;2022-12-07T16:33:46;5.53;;;3.08;;
21000;SDS011;10658;50.920;12.238;2022-12-07T16:37:49;7.05;;;3.72;;
21000;SDS011;10658;50.920;12.238;2022-12-07T16:41:50;7.00;;;4.22;;
21000;SDS011;10658;50.920;12.238;2022-12-07T16:45:52;7.43;;;2.88;;
21000;SDS011;10658;50.920;12.238;2022-12-07T16:49:53;6.55;;;3.40;;
21000;SDS011;10658;50.920;12.238;2022-12-07T16:53:55;2.30;;;1.73;;
21000;SDS011;10658;50.920;12.238;2022-12-07T16:57:58;4.90;;;2.65;;
21000;SDS011;10658;50.920;12.238;2022-12-07T17:02:00;13.52;;;6.05;;
21000;SDS011;10658;50.920;12.238;2022-12-07T17:06:00;5.32;;;2.47;;
21000;SDS011;10658;50.920;12.238;2022-12-07T17:10:24;6.00;;;2.03;;
21000;SDS011;10658;50.920;12.238;2022-12-07T17:14:26;4.93;;;2.67;;
21000;SDS011;10658;50.920;12.238;2022-12-07T17:18:45;8.05;;;3.40;;
21000;SDS011;10658;50.920;12.238;2022-12-07T17:23:09;6.28;;;2.85;;
21000;SDS011;10658;50.920;12.238;2022-12-07T17:27:10;4.28;;;2.30;;
21000;SDS011;10658;50.920;12.238;2022-12-07T17:31:12;7.78;;;4.10;;
21000;SDS011;10658;50.920;12.238;2022-12-07T17:35:14;8.68;;;4.03;;
21000;SDS011;10658;50.920;12.238;2022-12-07T17:39:17;21.92;;;10.98;;
21000;SDS011;10658;50.920;12.238;2022-12-07T17:43:20;13.68;;;5.20;;
21000;SDS011;10658;50.920;12.238;2022-12-07T17:47:21;12.65;;;5.28;;
21000;SDS011;10658;50.920;12.238;2022-12-07T17:51:23;18.33;;;8.75;;
21000;SDS011;10658;50.920;12.238;2022-12-07T17:55:44;10.63;;;4.82;;
21000;SDS011;10658;50.920;12.238;2022-12-07T17:59:45;12.02;;;6.35;;
21000;SDS011;10658;50.920;12.238;2022-12-07T18:03:47;8.25;;;4.47;;
21000;SDS011;10658;50.920;12.238;2022-12-07T18:07:47;21.25;;;9.43;;
21000;SDS011;10658;50.920;12.238;2022-12-07T18:11:48;12.00;;;5.53;;
21000;SDS011;10658;50.920;12.238;2022-12-07T18:15:58;7.95;;;4.90;;
21000;SDS011;10658;50.920;12.238;2022-12-07T18:20:00;10.30;;;6.38;;
21000;SDS011;10658;50.920;12.238;2022-12-07T18:24:02;38.40;;;16.05;;
21000;SDS011;10658;50.920;12.238;2022-12-07T18:28:05;26.83;;;10.73;;
21000;SDS011;10658;50.920;12.238;2022-12-07T18:32:06;16.15;;;6.82;;
21000;SDS011;10658;50.920;12.238;2022-12-07T18:36:07;11.10;;;6.07;;
21000;SDS011;10658;50.920;12.238;2022-12-07T18:40:08;13.98;;;7.88;;
21000;SDS011;10658;50.920;12.238;2022-12-07T18:44:10;14.77;;;7.30;;
21000;SDS011;10658;50.920;12.238;2022-12-07T18:48:13;16.70;;;8.77;;
21000;SDS011;10658;50.920;12.238;2022-12-07T18:52:16;24.15;;;11.75;;
21000;SDS011;10658;50.920;12.238;2022-12-07T18:56:18;6.20;;;4.05;;
21000;SDS011;10658;50.920;12.238;2022-12-07T19:00:24;5.28;;;3.63;;
21000;SDS011;10658;50.920;12.238;2022-12-07T19:04:27;4.13;;;2.67;;
21000;SDS011;10658;50.920;12.238;2022-12-07T19:08:28;7.40;;;4.97;;
21000;SDS011;10658;50.920;12.238;2022-12-07T19:12:29;4.50;;;3.63;;
21000;SDS011;10658;50.920;12.238;2022-12-07T19:16:30;15.73;;;8.73;;
21000;SDS011;10658;50.920;12.238;2022-12-07T19:20:31;10.57;;;5.20;;
21000;SDS011;10658;50.920;12.238;2022-12-07T19:24:34;22.90;;;11.27;;
21000;SDS011;10658;50.920;12.238;2022-12-07T19:28:36;16.08;;;7.70;;
21000;SDS011;10658;50.920;12.238;2022-12-07T19:32:37;7.20;;;4.03;;
21000;SDS011;10658;50.920;12.238;2022-12-07T19:36:38;7.13;;;3.38;;
21000;SDS011;10658;50.920;12.238;2022-12-07T19:40:39;5.40;;;3.90;;
21000;SDS011;10658;50.920;12.238;2022-12-07T19:44:41;6.22;;;3.30;;
21000;SDS011;10658;50.920;12.238;2022-12-07T19:48:43;6.35;;;2.90;;
21000;SDS011;10658;50.920;12.238;2022-12-07T19:52:45;5.60;;;2.58;;
21000;SDS011;10658;50.920;12.238;2022-12-07T19:56:46;4.25;;;2.10;;
21000;SDS011;10658;50.920;12.238;2022-12-07T20:00:48;5.30;;;2.95;;
21000;SDS011;10658;50.920;12.238;2022-12-07T20:04:50;3.95;;;2.60;;
21000;SDS011;10658;50.920;12.238;2022-12-07T20:08:51;5.03;;;2.92;;
21000;SDS011;10658;50.920;12.238;2022-12-07T20:12:52;4.90;;;3.08;;
21000;SDS011;10658;50.920;12.238;2022-12-07T20:17:12;5.15;;;2.85;;
21000;SDS011;10658;50.920;12.238;2022-12-07T20:21:13;5.65;;;2.88;;
21000;SDS011;10658;50.920;12.238;2022-12-07T20:25:14;11.13;;;5.82;;
21000;SDS011;10658;50.920;12.238;2022-12-07T20:29:18;8.73;;;4.63;;
21000;SDS011;10658;50.920;12.238;2022-12-07T20:33:22;6.85;;;4.45;;
21000;SDS011;10658;50.920;12.238;2022-12-07T20:37:23;7.05;;;4.35;;
21000;SDS011;10658;50.920;12.238;2022-12-07T20:41:24;5.38;;;4.10;;
21000;SDS011;10658;50.920;12.238;2022-12-07T20:45:44;5.40;;;3.05;;
21000;SDS011;10658;50.920;12.238;2022-12-07T20:49:47;4.40;;;3.17;;
21000;SDS011;10658;50.920;12.238;2022-12-07T20:53:48;5.07;;;2.90;;
21000;SDS011;10658;50.920;12.238;2022-12-07T20:57:49;4.32;;;2.60;;
21000;SDS011;10658;50.920;12.238;2022-12-07T21:01:50;3.00;;;2.50;;
21000;SDS011;10658;50.920;12.238;2022-12-07T21:05:52;5.72;;;3.08;;
21000;SDS011;10658;50.920;12.238;2022-12-07T21:09:54;4.70;;;2.70;;
21000;SDS011;10658;50.920;12.238;2022-12-07T21:13:56;9.02;;;3.38;;
21000;SDS011;10658;50.920;12.238;2022-12-07T21:17:58;5.15;;;2.83;;
21000;SDS011;10658;50.920;12.238;2022-12-07T21:21:59;8.10;;;3.90;;
21000;SDS011;10658;50.920;12.238;2022-12-07T21:26:07;10.07;;;4.03;;
21000;SDS011;10658;50.920;12.238;2022-12-07T21:30:12;3.95;;;2.53;;
21000;SDS011;10658;50.920;12.238;2022-12-07T21:34:13;8.18;;;4.13;;
21000;SDS011;10658;50.920;12.238;2022-12-07T21:38:14;6.47;;;4.05;;
21000;SDS011;10658;50.920;12.238;2022-12-07T21:42:15;6.93;;;3.47;;
21000;SDS011;10658;50.920;12.238;2022-12-07T21:46:17;7.00;;;3.60;;
21000;SDS011;10658;50.920;12.238;2022-12-07T21:50:20;10.75;;;6.05;;
21000;SDS011;10658;50.920;12.238;2022-12-07T21:54:22;9.82;;;4.90;;
21000;SDS011;10658;50.920;12.238;2022-12-07T21:58:23;7.43;;;5.05;;
21000;SDS011;10658;50.920;12.238;2022-12-07T22:02:24;11.13;;;6.10;;
21000;SDS011;10658;50.920;12.238;2022-12-07T22:06:25;8.80;;;4.40;;
21000;SDS011;10658;50.920;12.238;2022-12-07T22:10:27;13.98;;;4.78;;
21000;SDS011;10658;50.920;12.238;2022-12-07T22:14:28;12.90;;;5.00;;
21000;SDS011;10658;50.920;12.238;2022-12-07T22:18:50;8.93;;;4.25;;
21000;SDS011;10658;50.920;12.238;2022-12-07T22:22:51;6.78;;;3.63;;
21000;SDS011;10658;50.920;12.238;2022-12-07T22:26:52;9.20;;;3.55;;
21000;SDS011;10658;50.920;12.238;2022-12-07T22:30:53;5.65;;;3.33;;
21000;SDS011;10658;50.920;12.238;2022-12-07T22:35:01;9.02;;;4.93;;
21000;SDS011;10658;50.920;12.238;2022-12-07T22:39:03;7.82;;;4.22;;
21000;SDS011;10658;50.920;12.238;2022-12-07T22:43:05;6.32;;;3.67;;
21000;SDS011;10658;50.920;12.238;2022-12-07T22:47:06;4.85;;;3.40;;
21000;SDS011;10658;50.920;12.238;2022-12-07T22:51:18;6.80;;;3.53;;
21000;SDS011;10658;50.920;12.238;2022-12-07T22:55:25;5.60;;;3.85;;
21000;SDS011;10658;50.920;12.238;2022-12-07T22:59:26;8.07;;;3.60;;
21000;SDS011;10658;50.920;12.238;2022-12-07T23:03:27;7.32;;;3.92;;
21000;SDS011;10658;50.920;12.238;2022-12-07T23:07:29;9.15;;;5.05;;
21000;SDS011;10658;50.920;12.238;2022-12-07T23:11:31;5.97;;;3.20;;
21000;SDS011;10658;50.920;12.238;2022-12-07T23:15:52;5.68;;;4.10;;
21000;SDS011;10658;50.920;12.238;2022-12-07T23:19:54;5.28;;;3.63;;
21000;SDS011;10658;50.920;12.238;2022-12-07T23:23:56;4.68;;;2.83;;
21000;SDS011;10658;50.920;12.238;2022-12-07T23:27:58;8.18;;;3.88;;
21000;SDS011;10658;50.920;12.238;2022-12-07T23:31:59;6.38;;;3.70;;
21000;SDS011;10658;50.920;12.238;2022-12-07T23:36:11;4.78;;;3.58;;
21000;SDS011;10658;50.920;12.238;2022-12-07T23:40:16;11.60;;;3.97;;
21000;SDS011;10658;50.920;12.238;2022-12-07T23:44:18;5.28;;;3.03;;
21000;SDS011;10658;50.920;12.238;2022-12-07T23:48:19;6.60;;;3.55;;
21000;SDS011;10658;50.920;12.238;2022-12-07T23:52:20;6.40;;;3.72;;
21000;SDS011;10658;50.920;12.238;2022-12-07T23:56:22;5.03;;;3.47;;
